Overview Statistics Trail Chart Weather Telemetry Raw packets
 

This is the latest recevied packets stored in our database for station/object TA2BJS-1. If no packets are shown the sender has not sent any packets the latest 24 hours.

If you compare the raw packets with similar data from other websites it may differ (especially the path), the reason is that we are not collecting packets from the same APRS-IS servers. Each APRS-IS server performes duplicate filtering, and which packet that is considered to be a duplicate may differ depending on which APRS-IS server you receive your data from.

<< 1 2 3 4 >>

1788542192: TA2BJS-1>APLIGP,WIDE1-1,qAO,ON2ZZT-10:/171627h5116.04N/00424.07Eu157/001/A=-00017 TXC:306 Temp: 26.48C Humid:44.94% Batt: 4.0V

1788542068: TA2BJS-1>APLIGP,WIDE1-1,qAO,ON2ZZT-10:/171422h5116.03N/00424.04Eu357/011/A=-00026 TXC:305 Temp: 26.73C Humid:36.30% Batt: 4.0V

1788542031: TA2BJS-1>APLIGP,WIDE1-1,qAR,ON2ON-15:/171345h5115.87N/00423.93Eu087/035/A=000013 TXC:304 Temp: 26.67C Humid:36.82% Batt: 4.0V

1788541981: TA2BJS-1>APLIGP,WIDE1-1,qAO,ON2ZZT-10:/171255h5115.89N/00423.40Eu100/049/A=000008 TXC:303 Temp: 26.65C Humid:37.43% Batt: 4.0V

1788541945: TA2BJS-1>APLIGP,WIDE1-1,qAO,ON2ZZT-10:/171219h5116.02N/00422.66Eu131/043/A=-00017 TXC:302 Temp: 26.57C Humid:36.97% Batt: 4.0V

1788541907: TA2BJS-1>APLIGP,WIDE1-1,qAO,ON2ZZT-10:/171142h5116.15N/00422.47Eu116/008/A=000007 TXC:301 Temp: 26.47C Humid:37.05% Batt: 4.0V

1788541691: TA2BJS-1>APLIGP,WIDE1-1,qAR,ON2ON-15:/170805h5116.14N/00422.41Eu052/000/A=000000 TXC:300 Temp: 26.59C Humid:35.95% Batt: 4.0V

1788541397: TA2BJS-1>APLIGP,WIDE1-1,qAO,ON2ZZT-10:>TAHA - WP +90 553 901 62 05

1788541077: TA2BJS-1>APLIGP,WIDE1-1,qAR,ON2ON-15:/165749h5116.14N/00422.41Eu330/000/A=-00008 TXC:298 Temp: 27.02C Humid:35.34% Batt: 4.0V

1788540768: TA2BJS-1>APLIGP,WIDE1-1,qAO,ON2ZZT-10:/165242h5116.14N/00422.43Eu270/003/A=-00012 TXC:297 Temp: 27.33C Humid:36.63% Batt: 4.0V

1788540652: TA2BJS-1>APLIGP,WIDE1-1,qAO,ON2OT-10:/165047h5116.34N/00422.59Eu091/019/A=000003 TXC:295 Temp: 27.36C Humid:36.20% Batt: 4.0V

1788540616: TA2BJS-1>APLIGP,WIDE1-1,qAO,ON2ZZT-10:/165010h5116.34N/00422.36Eu161/001/A=000016 TXC:294 Temp: 27.33C Humid:36.10% Batt: 4.0V

1788539981: TA2BJS-1>APLIGP,WIDE1-1,qAR,ON2ON-15:/163935h5116.34N/00422.46Eu264/001/A=000063 TXC:290 Temp: 28.06C Humid:33.04% Batt: 4.0V

1788539922: TA2BJS-1>APLIGP,WIDE1-1,qAO,ON2ZZT-10:/163836h5116.34N/00422.41Eu090/001/A=000063 TXC:289 Temp: 28.09C Humid:32.87% Batt: 4.0V

1788539841: TA2BJS-1>APLIGP,WIDE1-1,qAO,ON2ZZT-10:/163715h5116.34N/00422.53Eu264/003/A=000013 TXC:288 Temp: 28.16C Humid:32.54% Batt: 4.0V

1788539743: TA2BJS-1>APLIGP,WIDE1-1,qAR,ON2ON-15:/163537h5116.34N/00422.39Eu089/018/A=-00020 TXC:287 Temp: 28.25C Humid:32.33% Batt: 4.0V

1788539625: TA2BJS-1>APLIGP,WIDE1-1,qAO,ON2ZZT-10:/163339h5116.45N/00422.87Eu227/034/A=-00026 TXC:284 Temp: 28.22C Humid:32.22% Batt: 4.0V

1788539594: TA2BJS-1>APLIGP,WIDE1-1,qAO,ON2ZZT-10:>TAHA - WP +90 553 901 62 05

1788539587: TA2BJS-1>APLIGP,WIDE1-1,qAO,ON2ZZT-10:/163302h5116.68N/00423.09Eu201/018/A=-00011 TXC:283 Temp: 28.16C Humid:32.53% Batt: 4.0V

1788539550: TA2BJS-1>APLIGP,WIDE1-1,qAO,ON2ZZT-10:/163225h5117.06N/00423.10Eu174/036/A=-00010 TXC:282 Temp: 28.15C Humid:32.56% Batt: 4.0V

1788539514: TA2BJS-1>APLIGP,WIDE1-1,qAR,ON2ON-15:/163148h5117.32N/00422.90Eu121/023/A=000012 TXC:281 Temp: 28.15C Humid:32.47% Batt: 4.0V

1788539316: TA2BJS-1>APLIGP,WIDE1-1,qAO,ON2ZZT-10:/162830h5117.57N/00421.12Eu144/031/A=-00012 TXC:278 Temp: 28.16C Humid:32.54% Batt: 4.0V

1788539159: TA2BJS-1>APLIGP,WIDE1-1,qAO,ON2ZZT-10:/162553h5118.57N/00419.53Eu151/013/A=-00005 TXC:275 Temp: 28.10C Humid:32.38% Batt: 4.0V

1788538878: TA2BJS-1>APLIGP,WIDE1-1,qAO,ON2ZZT-10:/162112h5117.31N/00417.48Eu024/027/A=-00016 TXC:270 Temp: 28.35C Humid:33.16% Batt: 4.0V

1788538764: TA2BJS-1>APLIGP,WIDE1-1,qAO,ON2ZZT-10:/161918h5116.68N/00417.03Eu020/008/A=000014 TXC:269 Temp: 28.40C Humid:33.21% Batt: 4.0V